createdAt,value
2022-11-27T00:01:22.672Z,102131.61
2022-11-27T00:03:52.550Z,102126.66
2022-11-27T00:06:22.578Z,102126.20
2022-11-27T00:08:51.388Z,102122.05
2022-11-27T00:11:21.307Z,102114.90
2022-11-27T00:13:50.802Z,102119.38
2022-11-27T00:16:20.367Z,102124.19
2022-11-27T00:18:49.799Z,102122.99
2022-11-27T00:21:22.422Z,102123.56
2022-11-27T00:23:51.939Z,102118.71
2022-11-27T00:26:21.133Z,102112.11
2022-11-27T00:28:49.966Z,102103.17
2022-11-27T00:31:20.029Z,102100.58
2022-11-27T00:33:49.633Z,102099.98
2022-11-27T00:36:18.564Z,102097.05
2022-11-27T00:38:47.351Z,102094.75
2022-11-27T00:41:18.375Z,102095.55
2022-11-27T00:43:47.734Z,102098.90
2022-11-27T00:46:17.308Z,102102.91
2022-11-27T00:48:46.832Z,102103.65
2022-11-27T00:51:16.570Z,102101.68
2022-11-27T00:53:45.540Z,102094.58
2022-11-27T00:56:16.830Z,102094.68
2022-11-27T00:58:45.968Z,102093.30
2022-11-27T01:01:19.942Z,102091.70
2022-11-27T01:03:49.388Z,102095.77
2022-11-27T01:06:19.540Z,102095.44
2022-11-27T01:08:48.809Z,102092.02
2022-11-27T01:11:18.579Z,102092.41
2022-11-27T01:13:48.300Z,102087.66
2022-11-27T01:16:18.749Z,102085.38
2022-11-27T01:18:48.275Z,102083.67
2022-11-27T01:21:18.706Z,102084.96
2022-11-27T01:23:48.500Z,102076.66
2022-11-27T01:26:18.736Z,102077.17
2022-11-27T01:28:47.539Z,102075.23
2022-11-27T01:31:17.687Z,102073.76
2022-11-27T01:33:47.352Z,102068.56
2022-11-27T01:36:17.281Z,102068.61
2022-11-27T01:38:46.110Z,102074.90
2022-11-27T01:41:17.177Z,102069.13
2022-11-27T01:43:47.408Z,102070.73
2022-11-27T01:46:25.597Z,102064.79
2022-11-27T01:48:56.763Z,102063.59
2022-11-27T01:51:25.630Z,102061.23
2022-11-27T01:53:55.668Z,102050.14
2022-11-27T01:56:25.222Z,102044.26
2022-11-27T01:58:55.203Z,102045.86
2022-11-27T02:01:26.314Z,102042.41
2022-11-27T02:03:55.734Z,102038.05
2022-11-27T02:06:25.475Z,102039.10
2022-11-27T02:08:54.976Z,102038.69
2022-11-27T02:11:29.507Z,102041.85
2022-11-27T02:14:04.298Z,102040.55
2022-11-27T02:16:38.080Z,102046.73
2022-11-27T02:19:14.940Z,102046.77
2022-11-27T02:21:47.990Z,102044.55
2022-11-27T02:24:43.100Z,102040.50
2022-11-27T02:27:27.471Z,102040.45
2022-11-27T02:29:58.297Z,102040.34
2022-11-27T02:32:30.660Z,102037.48
2022-11-27T02:35:02.851Z,102038.86
2022-11-27T02:37:34.920Z,102037.32
2022-11-27T02:40:06.586Z,102035.77
2022-11-27T02:42:40.165Z,102032.20
2022-11-27T02:45:12.150Z,102026.05
2022-11-27T02:47:42.376Z,102021.96
2022-11-27T02:50:13.848Z,102020.74
2022-11-27T02:52:45.119Z,102017.20
2022-11-27T02:55:15.737Z,102018.30
2022-11-27T02:57:45.686Z,102015.27
2022-11-27T03:00:15.559Z,102011.17
2022-11-27T03:02:47.297Z,102005.16
2022-11-27T03:05:19.006Z,101998.71
2022-11-27T03:07:50.916Z,101993.63
2022-11-27T03:10:22.324Z,101989.56
2022-11-27T03:12:52.641Z,101992.08
2022-11-27T03:15:22.647Z,101986.83
2022-11-27T03:17:54.356Z,101986.45
2022-11-27T03:20:26.076Z,101983.14
2022-11-27T03:22:56.135Z,101982.66
2022-11-27T03:25:25.532Z,101980.10
2022-11-27T03:27:56.985Z,101978.64
2022-11-27T03:30:25.925Z,101976.18
2022-11-27T03:32:54.970Z,101971.52
2022-11-27T03:35:25.753Z,101969.40
2022-11-27T03:37:55.597Z,101965.73
2022-11-27T03:40:28.266Z,101968.45
2022-11-27T03:43:00.516Z,101968.23
2022-11-27T03:45:33.070Z,101970.59
2022-11-27T03:48:07.566Z,101969.47
2022-11-27T03:50:44.316Z,101968.05
2022-11-27T03:53:18.750Z,101967.28
2022-11-27T03:55:51.621Z,101964.92
2022-11-27T03:58:24.712Z,101964.48
2022-11-27T04:00:54.725Z,101965.33
2022-11-27T04:03:26.139Z,101965.90
2022-11-27T04:05:55.468Z,101961.96
2022-11-27T04:08:26.337Z,101967.65
2022-11-27T04:10:55.595Z,101967.58
2022-11-27T04:13:24.713Z,101966.89
2022-11-27T04:15:53.955Z,101968.44
2022-11-27T04:18:22.859Z,101970.19
2022-11-27T04:20:52.088Z,101968.29
2022-11-27T04:23:21.370Z,101972.21
2022-11-27T04:25:50.572Z,101973.03
2022-11-27T04:28:19.386Z,101974.90
2022-11-27T04:30:52.243Z,101982.49
2022-11-27T04:33:21.892Z,101976.67
2022-11-27T04:35:51.246Z,101976.15
2022-11-27T04:38:20.445Z,101976.03
2022-11-27T04:40:49.764Z,101978.14
2022-11-27T04:43:18.970Z,101972.09
2022-11-27T04:45:48.358Z,101969.74
2022-11-27T04:48:17.215Z,101966.63
2022-11-27T04:50:46.955Z,101966.90
2022-11-27T04:53:16.689Z,101965.48
2022-11-27T04:55:45.492Z,101960.13
2022-11-27T04:58:14.438Z,101958.25
2022-11-27T05:00:43.741Z,101961.89
2022-11-27T05:03:13.243Z,101961.78
2022-11-27T05:05:42.544Z,101963.88
2022-11-27T05:08:11.795Z,101962.02
2022-11-27T05:10:41.146Z,101956.30
2022-11-27T05:13:09.982Z,101951.67
2022-11-27T05:15:39.365Z,101947.54
2022-11-27T05:18:08.425Z,101940.11
2022-11-27T05:20:37.294Z,101938.30
2022-11-27T05:23:06.459Z,101937.41
2022-11-27T05:25:35.251Z,101938.61
2022-11-27T05:28:04.169Z,101931.36
2022-11-27T05:30:32.989Z,101928.26
2022-11-27T05:33:02.103Z,101931.42
2022-11-27T05:35:31.245Z,101931.44
2022-11-27T05:38:00.148Z,101924.70
2022-11-27T05:40:29.497Z,101923.43
2022-11-27T05:42:58.370Z,101922.02
2022-11-27T05:45:27.783Z,101916.77
2022-11-27T05:47:56.624Z,101906.48
2022-11-27T05:50:26.283Z,101902.88
2022-11-27T05:52:55.135Z,101893.10
2022-11-27T05:55:24.010Z,101888.86
2022-11-27T05:57:52.956Z,101888.44
2022-11-27T06:00:22.389Z,101889.05
2022-11-27T06:02:51.392Z,101891.20
2022-11-27T06:05:20.294Z,101893.75
2022-11-27T06:07:49.299Z,101896.60
2022-11-27T06:10:18.602Z,101897.32
2022-11-27T06:12:47.553Z,101900.52
2022-11-27T06:15:16.577Z,101896.17
2022-11-27T06:17:45.641Z,101888.97
2022-11-27T06:20:14.757Z,101888.23
2022-11-27T06:22:44.040Z,101880.14
2022-11-27T06:25:13.054Z,101879.95
2022-11-27T06:27:42.081Z,101881.89
2022-11-27T06:30:12.122Z,101872.80
2022-11-27T06:32:40.992Z,101868.30
2022-11-27T06:35:10.581Z,101862.88
2022-11-27T06:37:39.484Z,101860.02
2022-11-27T06:40:09.697Z,101862.14
2022-11-27T06:42:38.939Z,101858.05
2022-11-27T06:45:08.762Z,101861.52
2022-11-27T06:47:38.054Z,101858.77
2022-11-27T06:50:07.870Z,101856.30
2022-11-27T06:52:40.423Z,101859.48
2022-11-27T06:55:10.395Z,101862.77
2022-11-27T06:57:40.131Z,101861.16
2022-11-27T07:00:10.272Z,101861.91
2022-11-27T07:02:39.202Z,101860.94
2022-11-27T07:05:09.100Z,101856.30
2022-11-27T07:07:42.448Z,101855.30
2022-11-27T07:10:13.329Z,101854.15
2022-11-27T07:12:42.596Z,101858.30
2022-11-27T07:15:12.003Z,101851.80
2022-11-27T07:17:41.763Z,101856.92
2022-11-27T07:20:12.074Z,101854.05
2022-11-27T07:22:41.294Z,101853.83
2022-11-27T07:25:10.943Z,101855.77
2022-11-27T07:27:39.808Z,101855.36
2022-11-27T07:30:09.889Z,101855.99
2022-11-27T07:32:38.785Z,101855.02
2022-11-27T07:35:08.460Z,101844.42
2022-11-27T07:37:37.609Z,101848.15
2022-11-27T07:40:07.716Z,101844.59
2022-11-27T07:42:38.320Z,101841.45
2022-11-27T07:45:09.244Z,101836.86
2022-11-27T07:47:38.660Z,101833.55
2022-11-27T07:50:09.322Z,101834.88
2022-11-27T07:52:41.958Z,101832.06
2022-11-27T07:55:11.678Z,101829.29
2022-11-27T07:57:42.458Z,101832.08
2022-11-27T08:00:12.488Z,101826.40
2022-11-27T08:02:41.413Z,101824.70
2022-11-27T08:05:13.265Z,101821.25
2022-11-27T08:07:42.453Z,101829.11
2022-11-27T08:10:11.596Z,101823.31
2022-11-27T08:12:40.469Z,101828.52
2022-11-27T08:15:10.773Z,101827.98
2022-11-27T08:17:40.100Z,101829.05
2022-11-27T08:20:10.285Z,101836.15
2022-11-27T08:22:39.499Z,101837.96
2022-11-27T08:25:09.455Z,101835.44
2022-11-27T08:27:38.945Z,101831.51
2022-11-27T08:30:09.081Z,101828.90
2022-11-27T08:32:40.825Z,101831.33
2022-11-27T08:35:10.630Z,101828.52
2022-11-27T08:37:39.768Z,101828.48
2022-11-27T08:40:09.852Z,101829.42
2022-11-27T08:42:38.709Z,101833.97
2022-11-27T08:45:09.335Z,101838.25
2022-11-27T08:47:38.215Z,101835.95
2022-11-27T08:50:08.291Z,101833.63
2022-11-27T08:52:37.669Z,101827.98
2022-11-27T08:55:07.992Z,101823.06
2022-11-27T08:57:36.897Z,101825.93
2022-11-27T09:00:07.822Z,101821.64
2022-11-27T09:02:36.766Z,101822.23
2022-11-27T09:05:07.605Z,101828.04
2022-11-27T09:07:36.565Z,101821.81
2022-11-27T09:10:06.285Z,101822.55
2022-11-27T09:12:38.211Z,101819.00
2022-11-27T09:15:12.199Z,101816.98
2022-11-27T09:17:41.087Z,101813.61
2022-11-27T09:20:10.583Z,101808.45
2022-11-27T09:22:39.728Z,101802.76
2022-11-27T09:25:09.691Z,101801.84
2022-11-27T09:27:39.240Z,101798.13
2022-11-27T09:30:09.684Z,101796.83
2022-11-27T09:32:38.562Z,101793.09
2022-11-27T09:35:08.075Z,101795.54
2022-11-27T09:37:37.192Z,101786.64
2022-11-27T09:40:07.611Z,101774.13
2022-11-27T09:42:41.730Z,101769.58
2022-11-27T09:45:14.690Z,101766.02
2022-11-27T09:47:47.378Z,101762.31
2022-11-27T09:50:17.608Z,101755.13
2022-11-27T09:52:49.356Z,101749.79
2022-11-27T09:55:22.134Z,101751.04
2022-11-27T09:57:56.541Z,101745.11
2022-11-27T10:00:25.994Z,101741.83
2022-11-27T10:02:55.980Z,101744.99
2022-11-27T10:05:26.798Z,101741.88
2022-11-27T10:08:15.461Z,101743.53
2022-11-27T10:10:46.747Z,101730.05
2022-11-27T10:13:29.561Z,101723.36
2022-11-27T10:16:02.690Z,101717.38
2022-11-27T10:18:35.356Z,101716.23
2022-11-27T10:21:08.474Z,101709.14
2022-11-27T10:23:42.679Z,101704.20
2022-11-27T10:26:17.043Z,101701.61
2022-11-27T10:28:51.347Z,101706.14
2022-11-27T10:31:23.572Z,101709.86
2022-11-27T10:33:54.613Z,101710.59
2022-11-27T10:36:28.316Z,101712.22
2022-11-27T10:38:58.598Z,101715.64
2022-11-27T10:44:29.223Z,101705.20
2022-11-27T10:47:02.345Z,101699.05
2022-11-27T10:49:31.665Z,101696.02
2022-11-27T10:52:00.659Z,101690.27
2022-11-27T10:54:32.874Z,101689.70
2022-11-27T10:57:10.866Z,101682.99
2022-11-27T10:59:42.082Z,101680.70
2022-11-27T11:02:25.707Z,101675.95
2022-11-27T11:05:16.595Z,101669.16
2022-11-27T11:07:54.879Z,101672.02
2022-11-27T11:10:26.399Z,101673.40
2022-11-27T11:13:06.039Z,101664.43
2022-11-27T11:15:34.950Z,101656.09
2022-11-27T11:18:04.264Z,101652.05
2022-11-27T11:20:33.201Z,101646.02
2022-11-27T11:23:02.612Z,101649.27
2022-11-27T11:25:31.583Z,101658.63
2022-11-27T11:28:00.882Z,101660.04
2022-11-27T11:30:31.344Z,101661.22
2022-11-27T11:33:03.238Z,101659.94
2022-11-27T11:35:34.761Z,101661.14
2022-11-27T11:38:04.911Z,101662.04
2022-11-27T11:40:35.048Z,101661.27
2022-11-27T11:43:06.543Z,101654.16
2022-11-27T11:45:36.001Z,101650.58
2022-11-27T11:48:20.368Z,101650.55
2022-11-27T11:50:53.980Z,101644.80
2022-11-27T11:53:28.060Z,101637.73
2022-11-27T11:56:03.833Z,101635.95
2022-11-27T11:58:44.378Z,101627.65
2022-11-27T12:01:26.820Z,101626.04
2022-11-27T12:04:08.407Z,101624.89
2022-11-27T12:06:51.336Z,101620.23
2022-11-27T12:09:39.918Z,101615.91
2022-11-27T12:12:13.498Z,101612.14
2022-11-27T12:14:46.092Z,101608.76
2022-11-27T12:17:23.772Z,101603.44
2022-11-27T12:20:03.012Z,101604.08
2022-11-27T12:22:44.643Z,101592.27
2022-11-27T12:25:21.532Z,101584.09
2022-11-27T12:27:59.353Z,101579.73
2022-11-27T12:30:35.966Z,101581.50
2022-11-27T12:33:10.763Z,101573.52
2022-11-27T12:35:42.950Z,101569.20
2022-11-27T12:38:19.170Z,101564.73
2022-11-27T12:40:54.320Z,101560.70
2022-11-27T12:43:25.536Z,101555.58
2022-11-27T12:45:58.705Z,101555.89
2022-11-27T12:48:31.127Z,101553.21
2022-11-27T12:51:02.814Z,101551.23
2022-11-27T12:53:35.903Z,101545.95
2022-11-27T12:56:10.376Z,101545.06
2022-11-27T12:58:42.327Z,101545.55
2022-11-27T13:01:14.608Z,101536.55
2022-11-27T13:03:48.529Z,101536.35
2022-11-27T13:06:19.877Z,101528.15
2022-11-27T13:08:52.729Z,101519.34
2022-11-27T13:11:25.253Z,101513.92
2022-11-27T13:13:57.006Z,101510.05
2022-11-27T13:16:28.065Z,101508.96
2022-11-27T13:19:00.085Z,101502.95
2022-11-27T13:21:30.543Z,101507.28
2022-11-27T13:24:01.445Z,101503.55
2022-11-27T13:26:32.114Z,101503.69
2022-11-27T13:29:02.766Z,101500.50
2022-11-27T13:31:35.320Z,101499.73
2022-11-27T13:34:05.723Z,101488.98
2022-11-27T13:36:38.324Z,101489.70
2022-11-27T13:39:07.604Z,101485.17
2022-11-27T13:41:40.007Z,101485.52
2022-11-27T13:44:22.689Z,101481.85
2022-11-27T13:46:54.892Z,101478.18
2022-11-27T13:49:26.501Z,101470.73
2022-11-27T13:52:04.444Z,101470.06
2022-11-27T13:54:33.519Z,101469.40
2022-11-27T13:57:11.622Z,101464.11
2022-11-27T13:59:40.978Z,101459.11
2022-11-27T14:02:10.304Z,101459.89
2022-11-27T14:04:54.370Z,101460.64
2022-11-27T14:07:35.625Z,101455.86
2022-11-27T14:10:09.953Z,101458.86
2022-11-27T14:12:38.959Z,101452.84
2022-11-27T14:15:10.203Z,101446.82
2022-11-27T14:17:41.848Z,101445.08
2022-11-27T14:20:25.908Z,101444.36
2022-11-27T14:23:13.058Z,101442.11
2022-11-27T14:25:43.183Z,101437.86
2022-11-27T14:28:15.998Z,101435.16
2022-11-27T14:30:47.833Z,101436.80
2022-11-27T14:33:21.303Z,101433.61
2022-11-27T14:35:51.425Z,101433.58
2022-11-27T14:38:20.723Z,101431.89
2022-11-27T14:40:49.924Z,101428.05
2022-11-27T14:43:20.351Z,101425.09
2022-11-27T14:45:50.886Z,101420.52
2022-11-27T14:48:24.150Z,101413.39
2022-11-27T14:50:53.984Z,101418.58
2022-11-27T14:53:24.823Z,101419.57
2022-11-27T14:55:55.951Z,101410.61
2022-11-27T14:58:26.173Z,101410.27
2022-11-27T15:00:56.310Z,101412.10
2022-11-27T15:03:26.108Z,101404.55
2022-11-27T15:05:59.686Z,101398.33
2022-11-27T15:08:29.498Z,101392.59
2022-11-27T15:10:59.453Z,101385.28
2022-11-27T15:13:31.223Z,101376.23
2022-11-27T15:16:03.505Z,101376.91
2022-11-27T15:18:33.871Z,101372.89
2022-11-27T15:21:04.190Z,101366.49
2022-11-27T15:23:34.109Z,101362.42
2022-11-27T15:26:14.321Z,101360.38
2022-11-27T15:28:44.662Z,101359.31
2022-11-27T15:31:25.619Z,101355.92
2022-11-27T15:33:58.878Z,101355.67
2022-11-27T15:36:28.253Z,101347.66
2022-11-27T15:39:06.692Z,101346.64
2022-11-27T15:41:40.864Z,101343.44
2022-11-27T15:44:12.314Z,101340.01
2022-11-27T15:46:42.435Z,101342.39
2022-11-27T15:49:13.990Z,101338.27
2022-11-27T15:51:43.454Z,101334.86
2022-11-27T15:54:12.825Z,101332.09
2022-11-27T15:56:41.705Z,101330.63
2022-11-27T15:59:11.142Z,101327.23
2022-11-27T16:01:40.140Z,101329.58
2022-11-27T16:04:09.221Z,101328.14
2022-11-27T16:06:38.192Z,101322.91
2022-11-27T16:09:07.508Z,101316.40
2022-11-27T16:11:37.055Z,101319.64
2022-11-27T16:14:07.505Z,101317.23
2022-11-27T16:16:37.124Z,101321.05
2022-11-27T16:19:06.875Z,101321.00
2022-11-27T16:21:36.043Z,101315.48
2022-11-27T16:24:06.361Z,101309.35
2022-11-27T16:26:36.818Z,101312.80
2022-11-27T16:29:06.625Z,101306.48
2022-11-27T16:31:35.563Z,101306.08
2022-11-27T16:34:06.042Z,101305.19
2022-11-27T16:36:35.135Z,101304.82
2022-11-27T16:39:04.452Z,101300.77
2022-11-27T16:41:33.295Z,101292.48
2022-11-27T16:44:02.312Z,101288.92
2022-11-27T16:46:31.647Z,101289.20
2022-11-27T16:49:01.519Z,101284.17
2022-11-27T16:51:33.437Z,101281.86
2022-11-27T16:54:03.251Z,101275.95
2022-11-27T16:56:33.584Z,101278.86
2022-11-27T16:59:03.522Z,101280.54
2022-11-27T17:01:34.316Z,101281.86
2022-11-27T17:04:04.778Z,101274.58
2022-11-27T17:06:34.467Z,101276.22
2022-11-27T17:09:05.193Z,101266.43
2022-11-27T17:11:35.808Z,101264.52
2022-11-27T17:14:06.294Z,101254.20
2022-11-27T17:16:35.679Z,101248.55
2022-11-27T17:19:04.829Z,101243.25
2022-11-27T17:21:35.064Z,101240.80
2022-11-27T17:24:07.865Z,101236.47
2022-11-27T17:26:42.508Z,101233.74
2022-11-27T17:29:11.705Z,101233.77
2022-11-27T17:31:40.824Z,101233.16
2022-11-27T17:34:12.476Z,101229.96
2022-11-27T17:36:43.051Z,101230.23
2022-11-27T17:39:13.212Z,101228.70
2022-11-27T17:41:42.399Z,101225.65
2022-11-27T17:44:11.199Z,101222.59
2022-11-27T17:46:41.055Z,101221.23
2022-11-27T17:49:10.000Z,101221.13
2022-11-27T17:51:38.852Z,101222.55
2022-11-27T17:54:07.777Z,101218.41
2022-11-27T17:56:36.693Z,101213.46
2022-11-27T17:59:05.547Z,101210.69
2022-11-27T18:01:35.002Z,101205.23
2022-11-27T18:04:05.462Z,101207.91
2022-11-27T18:06:36.135Z,101206.45
2022-11-27T18:09:05.424Z,101210.49
2022-11-27T18:11:34.758Z,101208.29
2022-11-27T18:14:03.737Z,101195.23
2022-11-27T18:16:34.067Z,101189.59
2022-11-27T18:19:05.463Z,101192.75
2022-11-27T18:21:34.651Z,101189.25
2022-11-27T18:27:08.170Z,101174.63
2022-11-27T18:29:37.852Z,101169.51
2022-11-27T18:32:07.225Z,101170.28
2022-11-27T18:34:36.772Z,101164.15
2022-11-27T18:37:05.755Z,101153.39
2022-11-27T18:39:35.270Z,101151.04
2022-11-27T18:42:05.087Z,101145.95
2022-11-27T18:44:37.255Z,101145.78
2022-11-27T18:47:12.188Z,101143.91
2022-11-27T18:49:41.559Z,101144.09
2022-11-27T18:52:11.527Z,101139.75
2022-11-27T18:54:40.530Z,101138.22
2022-11-27T18:57:11.141Z,101137.30
2022-11-27T18:59:40.829Z,101138.41
2022-11-27T19:02:11.036Z,101134.15
2022-11-27T19:04:40.397Z,101132.23
2022-11-27T19:07:09.743Z,101134.31
2022-11-27T19:09:39.283Z,101130.39
2022-11-27T19:12:08.477Z,101132.58
2022-11-27T19:14:37.652Z,101128.83
2022-11-27T19:17:06.866Z,101123.29
2022-11-27T19:22:25.322Z,101110.89
2022-11-27T19:24:54.425Z,101110.99
2022-11-27T19:27:23.654Z,101100.52
2022-11-27T19:29:52.565Z,101102.04
2022-11-27T19:32:21.925Z,101100.73
2022-11-27T19:34:51.922Z,101105.36
2022-11-27T19:37:33.625Z,101096.44
2022-11-27T19:40:03.972Z,101097.86
2022-11-27T19:42:33.399Z,101095.72
2022-11-27T19:45:02.547Z,101087.72
2022-11-27T19:47:32.053Z,101086.13
2022-11-27T19:50:01.237Z,101077.08
2022-11-27T19:52:30.140Z,101071.97
2022-11-27T19:54:59.642Z,101059.75
2022-11-27T19:57:28.516Z,101057.31
2022-11-27T19:59:57.407Z,101058.73
2022-11-27T20:02:26.398Z,101055.23
2022-11-27T20:04:55.422Z,101051.10
2022-11-27T20:07:24.354Z,101055.23
2022-11-27T20:09:53.524Z,101057.58
2022-11-27T20:12:22.467Z,101057.35
2022-11-27T20:14:51.350Z,101058.80
2022-11-27T20:17:20.462Z,101056.53
2022-11-27T20:19:49.413Z,101052.60
2022-11-27T20:22:18.693Z,101051.60
2022-11-27T20:25:11.244Z,101049.40
2022-11-27T20:27:36.848Z,101043.40
2022-11-27T20:30:07.205Z,101042.31
2022-11-27T20:32:36.212Z,101040.58
2022-11-27T20:35:05.736Z,101041.11
2022-11-27T20:37:35.033Z,101033.36
2022-11-27T20:40:04.148Z,101035.17
2022-11-27T20:42:33.061Z,101037.76
2022-11-27T20:45:05.051Z,101036.77
2022-11-27T20:47:35.659Z,101028.48
2022-11-27T20:50:04.966Z,101029.88
2022-11-27T20:52:33.913Z,101030.12
2022-11-27T20:55:02.804Z,101022.34
2022-11-27T20:57:31.687Z,101023.02
2022-11-27T21:00:00.575Z,101021.33
2022-11-27T21:02:29.577Z,101015.16
2022-11-27T21:04:58.900Z,101016.20
2022-11-27T21:07:27.830Z,101014.98
2022-11-27T21:09:57.259Z,101011.90
2022-11-27T21:12:27.250Z,101017.59
2022-11-27T21:14:56.162Z,101015.96
2022-11-27T21:17:25.111Z,101016.08
2022-11-27T21:19:53.913Z,101016.85
2022-11-27T21:22:22.884Z,101005.72
2022-11-27T21:24:52.163Z,101013.19
2022-11-27T21:27:21.491Z,101008.60
2022-11-27T21:29:50.283Z,101009.59
2022-11-27T21:32:22.477Z,101007.11
2022-11-27T21:34:51.570Z,101006.25
2022-11-27T21:37:20.727Z,101002.34
2022-11-27T21:39:49.657Z,101001.70
2022-11-27T21:42:18.904Z,101002.36
2022-11-27T21:44:47.694Z,100997.71
2022-11-27T21:47:16.583Z,100987.52
2022-11-27T21:49:45.453Z,100985.14
2022-11-27T21:52:14.365Z,100978.27
2022-11-27T21:54:43.851Z,100972.95
2022-11-27T21:57:13.056Z,100967.46
2022-11-27T21:59:43.084Z,100962.13
2022-11-27T22:02:12.746Z,100967.52
2022-11-27T22:04:42.163Z,100966.61
2022-11-27T22:07:11.531Z,100972.27
2022-11-27T22:09:41.040Z,100976.89
2022-11-27T22:12:09.973Z,100975.30
2022-11-27T22:14:39.325Z,100963.33
2022-11-27T22:17:08.488Z,100957.95
2022-11-27T22:19:42.206Z,100970.10
2022-11-27T22:22:11.078Z,100959.38
2022-11-27T22:24:40.544Z,100963.77
2022-11-27T22:27:09.663Z,100957.20
2022-11-27T22:29:38.744Z,100945.48
2022-11-27T22:32:07.725Z,100937.77
2022-11-27T22:34:36.858Z,100948.57
2022-11-27T22:37:05.978Z,100940.05
2022-11-27T22:39:35.177Z,100940.41
2022-11-27T22:42:04.118Z,100942.03
2022-11-27T22:44:33.252Z,100939.12
2022-11-27T22:47:02.427Z,100927.60
2022-11-27T22:49:31.332Z,100933.75
2022-11-27T22:52:00.216Z,100934.60
2022-11-27T22:54:29.375Z,100918.91
2022-11-27T22:56:58.551Z,100925.80
2022-11-27T22:59:32.826Z,100917.48
2022-11-27T23:02:02.517Z,100918.33
2022-11-27T23:04:32.096Z,100914.42
2022-11-27T23:07:01.442Z,100930.77
2022-11-27T23:09:30.776Z,100917.15
2022-11-27T23:11:59.660Z,100916.23
2022-11-27T23:14:28.584Z,100915.42
2022-11-27T23:16:57.892Z,100922.69
2022-11-27T23:19:26.819Z,100916.11
2022-11-27T23:21:55.806Z,100908.45
2022-11-27T23:24:24.794Z,100902.60
2022-11-27T23:26:53.724Z,100914.52
2022-11-27T23:29:22.592Z,100909.11
2022-11-27T23:31:52.278Z,100890.83
2022-11-27T23:34:21.217Z,100895.41
2022-11-27T23:36:50.428Z,100914.30
2022-11-27T23:39:19.656Z,100929.80
2022-11-27T23:41:49.636Z,100922.65
2022-11-27T23:44:18.599Z,100919.88
2022-11-27T23:46:48.117Z,100909.95
2022-11-27T23:49:17.046Z,100906.93
2022-11-27T23:51:45.890Z,100899.91
2022-11-27T23:54:14.916Z,100894.34
2022-11-27T23:56:44.127Z,100891.29
2022-11-27T23:59:13.064Z,100893.77
